Archival Weather

King Khaled Intl

King Khaled Intl, Saudi Arabia (OERK)

Report from: Thursday, February 22, 2024 12:00 PM +03
Current time: Wednesday, April 24, 2024 9:37 PM +03

Current weather – Weather history – Daily summaries
Weather forecast

Temperature23.0°C (73.4°F)
Dew point1.0°C (33.8°F)
Winds 6 kts (3.1 m/s, 6.9 mph) Southeast (130°)
Clouds Sky clear
Altimeter30.18 in.Hg (1022 mB)
Relative humidity23 %
Density altitude740 ft. (226 m)
Remarks Ceiling and visibility OK
No significant changes expected in the next two hours
Flight conditions Visual Meteorological Conditions
Raw dataOERK 220900Z 13006KT CAVOK 23/01 Q1022 NOSIG
An error has occurred. This application may no longer respond until reloaded. Reload 🗙